sensor_id;sensor_type;location;lat;lon;timestamp;P1;durP1;ratioP1;P2;durP2;ratioP2
12760;SDS011;6444;49.742;6.114;2022-08-03T00:01:25;4.87;;;3.70;;
12760;SDS011;6444;49.742;6.114;2022-08-03T00:03:51;5.20;;;4.03;;
12760;SDS011;6444;49.742;6.114;2022-08-03T00:06:18;5.00;;;4.55;;
12760;SDS011;6444;49.742;6.114;2022-08-03T00:08:44;4.30;;;3.90;;
12760;SDS011;6444;49.742;6.114;2022-08-03T00:11:11;4.20;;;3.90;;
12760;SDS011;6444;49.742;6.114;2022-08-03T00:13:38;4.28;;;3.92;;
12760;SDS011;6444;49.742;6.114;2022-08-03T00:16:04;4.78;;;4.37;;
12760;SDS011;6444;49.742;6.114;2022-08-03T00:18:31;5.47;;;4.25;;
12760;SDS011;6444;49.742;6.114;2022-08-03T00:20:58;4.35;;;4.05;;
12760;SDS011;6444;49.742;6.114;2022-08-03T00:23:24;4.82;;;4.32;;
12760;SDS011;6444;49.742;6.114;2022-08-03T00:25:51;4.72;;;4.32;;
12760;SDS011;6444;49.742;6.114;2022-08-03T00:28:17;5.37;;;4.87;;
12760;SDS011;6444;49.742;6.114;2022-08-03T00:30:44;4.85;;;4.37;;
12760;SDS011;6444;49.742;6.114;2022-08-03T00:33:11;4.30;;;4.00;;
12760;SDS011;6444;49.742;6.114;2022-08-03T00:35:37;4.93;;;4.37;;
12760;SDS011;6444;49.742;6.114;2022-08-03T00:38:04;4.45;;;4.05;;
12760;SDS011;6444;49.742;6.114;2022-08-03T00:40:31;4.97;;;4.50;;
12760;SDS011;6444;49.742;6.114;2022-08-03T00:42:58;4.75;;;4.35;;
12760;SDS011;6444;49.742;6.114;2022-08-03T00:45:25;5.30;;;4.78;;
12760;SDS011;6444;49.742;6.114;2022-08-03T00:47:56;5.25;;;4.50;;
12760;SDS011;6444;49.742;6.114;2022-08-03T00:50:23;4.93;;;4.40;;
12760;SDS011;6444;49.742;6.114;2022-08-03T00:52:53;6.10;;;5.50;;
12760;SDS011;6444;49.742;6.114;2022-08-03T00:55:19;4.82;;;4.28;;
12760;SDS011;6444;49.742;6.114;2022-08-03T00:57:45;5.37;;;4.62;;
12760;SDS011;6444;49.742;6.114;2022-08-03T01:00:13;5.78;;;5.18;;
12760;SDS011;6444;49.742;6.114;2022-08-03T01:02:39;5.20;;;4.70;;
12760;SDS011;6444;49.742;6.114;2022-08-03T01:05:05;4.68;;;4.28;;
12760;SDS011;6444;49.742;6.114;2022-08-03T01:16:08;6.72;;;4.72;;
12760;SDS011;6444;49.742;6.114;2022-08-03T01:18:36;5.07;;;4.68;;
12760;SDS011;6444;49.742;6.114;2022-08-03T01:21:06;5.90;;;4.93;;
12760;SDS011;6444;49.742;6.114;2022-08-03T01:23:34;7.10;;;4.93;;
12760;SDS011;6444;49.742;6.114;2022-08-03T01:26:18;5.68;;;5.18;;
12760;SDS011;6444;49.742;6.114;2022-08-03T01:31:56;5.37;;;4.87;;
12760;SDS011;6444;49.742;6.114;2022-08-03T01:34:02;5.70;;;5.20;;
12760;SDS011;6444;49.742;6.114;2022-08-03T01:36:29;5.72;;;5.20;;
12760;SDS011;6444;49.742;6.114;2022-08-03T01:39:00;7.95;;;5.57;;
12760;SDS011;6444;49.742;6.114;2022-08-03T01:41:29;6.57;;;4.93;;
12760;SDS011;6444;49.742;6.114;2022-08-03T01:43:58;7.30;;;5.85;;
12760;SDS011;6444;49.742;6.114;2022-08-03T01:46:25;5.72;;;5.22;;
12760;SDS011;6444;49.742;6.114;2022-08-03T01:48:51;6.62;;;5.57;;
12760;SDS011;6444;49.742;6.114;2022-08-03T01:51:18;6.12;;;5.53;;
12760;SDS011;6444;49.742;6.114;2022-08-03T01:53:44;5.47;;;4.93;;
12760;SDS011;6444;49.742;6.114;2022-08-03T01:56:11;5.93;;;5.43;;
12760;SDS011;6444;49.742;6.114;2022-08-03T01:58:38;6.10;;;5.20;;
12760;SDS011;6444;49.742;6.114;2022-08-03T02:01:04;5.93;;;5.30;;
12760;SDS011;6444;49.742;6.114;2022-08-03T02:03:33;6.87;;;5.97;;
12760;SDS011;6444;49.742;6.114;2022-08-03T02:05:58;6.50;;;5.78;;
12760;SDS011;6444;49.742;6.114;2022-08-03T02:08:25;5.87;;;5.28;;
12760;SDS011;6444;49.742;6.114;2022-08-03T02:10:52;5.78;;;5.18;;
12760;SDS011;6444;49.742;6.114;2022-08-03T02:13:18;5.40;;;4.90;;
12760;SDS011;6444;49.742;6.114;2022-08-03T02:15:45;6.53;;;5.03;;
12760;SDS011;6444;49.742;6.114;2022-08-03T02:18:11;8.18;;;5.32;;
12760;SDS011;6444;49.742;6.114;2022-08-03T02:20:39;6.05;;;5.55;;
12760;SDS011;6444;49.742;6.114;2022-08-03T02:23:05;6.30;;;5.45;;
12760;SDS011;6444;49.742;6.114;2022-08-03T02:25:33;5.78;;;5.10;;
12760;SDS011;6444;49.742;6.114;2022-08-03T02:28:05;8.30;;;6.72;;
12760;SDS011;6444;49.742;6.114;2022-08-03T02:30:35;6.68;;;5.32;;
12760;SDS011;6444;49.742;6.114;2022-08-03T02:33:04;6.62;;;5.45;;
12760;SDS011;6444;49.742;6.114;2022-08-03T02:35:30;5.85;;;5.35;;
12760;SDS011;6444;49.742;6.114;2022-08-03T02:37:58;5.35;;;4.85;;
12760;SDS011;6444;49.742;6.114;2022-08-03T02:40:23;6.68;;;5.30;;
12760;SDS011;6444;49.742;6.114;2022-08-03T02:42:50;5.45;;;4.95;;
12760;SDS011;6444;49.742;6.114;2022-08-03T02:45:17;5.95;;;4.75;;
12760;SDS011;6444;49.742;6.114;2022-08-03T02:47:43;6.15;;;5.25;;
12760;SDS011;6444;49.742;6.114;2022-08-03T02:50:11;6.07;;;5.50;;
12760;SDS011;6444;49.742;6.114;2022-08-03T02:52:36;6.35;;;5.70;;
12760;SDS011;6444;49.742;6.114;2022-08-03T02:55:03;5.53;;;5.03;;
12760;SDS011;6444;49.742;6.114;2022-08-03T02:57:30;5.40;;;4.90;;
12760;SDS011;6444;49.742;6.114;2022-08-03T02:59:57;6.55;;;5.68;;
12760;SDS011;6444;49.742;6.114;2022-08-03T03:02:24;5.65;;;5.15;;
12760;SDS011;6444;49.742;6.114;2022-08-03T03:04:51;5.95;;;5.40;;
12760;SDS011;6444;49.742;6.114;2022-08-03T03:07:18;7.07;;;5.50;;
12760;SDS011;6444;49.742;6.114;2022-08-03T03:09:44;5.80;;;5.22;;
12760;SDS011;6444;49.742;6.114;2022-08-03T03:12:11;8.23;;;5.20;;
12760;SDS011;6444;49.742;6.114;2022-08-03T03:14:38;6.10;;;5.47;;
12760;SDS011;6444;49.742;6.114;2022-08-03T03:17:05;5.85;;;5.30;;
12760;SDS011;6444;49.742;6.114;2022-08-03T03:19:32;6.43;;;5.72;;
12760;SDS011;6444;49.742;6.114;2022-08-03T03:22:01;7.03;;;6.20;;
12760;SDS011;6444;49.742;6.114;2022-08-03T03:24:28;7.35;;;5.82;;
12760;SDS011;6444;49.742;6.114;2022-08-03T03:26:55;7.87;;;7.12;;
12760;SDS011;6444;49.742;6.114;2022-08-03T03:29:21;8.07;;;5.87;;
12760;SDS011;6444;49.742;6.114;2022-08-03T03:31:48;7.03;;;5.80;;
12760;SDS011;6444;49.742;6.114;2022-08-03T03:34:14;8.55;;;5.95;;
12760;SDS011;6444;49.742;6.114;2022-08-03T03:36:41;8.93;;;5.80;;
12760;SDS011;6444;49.742;6.114;2022-08-03T03:39:08;7.80;;;5.87;;
12760;SDS011;6444;49.742;6.114;2022-08-03T03:41:35;7.93;;;6.28;;
12760;SDS011;6444;49.742;6.114;2022-08-03T03:44:02;8.10;;;5.82;;
12760;SDS011;6444;49.742;6.114;2022-08-03T03:46:28;7.03;;;5.82;;
12760;SDS011;6444;49.742;6.114;2022-08-03T03:48:55;8.38;;;7.57;;
12760;SDS011;6444;49.742;6.114;2022-08-03T03:51:21;7.75;;;6.10;;
12760;SDS011;6444;49.742;6.114;2022-08-03T03:53:55;8.27;;;6.18;;
12760;SDS011;6444;49.742;6.114;2022-08-03T03:56:21;8.57;;;7.82;;
12760;SDS011;6444;49.742;6.114;2022-08-03T03:58:47;8.30;;;6.80;;
12760;SDS011;6444;49.742;6.114;2022-08-03T04:01:14;9.55;;;6.70;;
12760;SDS011;6444;49.742;6.114;2022-08-03T04:03:41;9.27;;;7.72;;
12760;SDS011;6444;49.742;6.114;2022-08-03T04:06:07;9.70;;;7.00;;
12760;SDS011;6444;49.742;6.114;2022-08-03T04:08:52;8.60;;;6.40;;
12760;SDS011;6444;49.742;6.114;2022-08-03T04:11:41;7.62;;;5.75;;
12760;SDS011;6444;49.742;6.114;2022-08-03T04:16:48;9.43;;;5.95;;
12760;SDS011;6444;49.742;6.114;2022-08-03T04:19:16;8.73;;;6.35;;
12760;SDS011;6444;49.742;6.114;2022-08-03T04:21:42;8.07;;;6.37;;
12760;SDS011;6444;49.742;6.114;2022-08-03T04:24:09;6.97;;;6.37;;
12760;SDS011;6444;49.742;6.114;2022-08-03T04:26:36;7.80;;;5.97;;
12760;SDS011;6444;49.742;6.114;2022-08-03T04:29:02;8.30;;;6.75;;
12760;SDS011;6444;49.742;6.114;2022-08-03T04:31:29;7.43;;;6.70;;
12760;SDS011;6444;49.742;6.114;2022-08-03T04:33:56;7.72;;;6.45;;
12760;SDS011;6444;49.742;6.114;2022-08-03T04:36:24;7.07;;;6.28;;
12760;SDS011;6444;49.742;6.114;2022-08-03T04:38:54;8.43;;;5.85;;
12760;SDS011;6444;49.742;6.114;2022-08-03T04:41:18;8.52;;;6.03;;
12760;SDS011;6444;49.742;6.114;2022-08-03T04:43:45;6.53;;;5.90;;
12760;SDS011;6444;49.742;6.114;2022-08-03T04:46:11;6.50;;;5.90;;
12760;SDS011;6444;49.742;6.114;2022-08-03T04:48:39;7.78;;;6.10;;
12760;SDS011;6444;49.742;6.114;2022-08-03T04:51:05;6.85;;;6.00;;
12760;SDS011;6444;49.742;6.114;2022-08-03T04:53:32;6.55;;;5.60;;
12760;SDS011;6444;49.742;6.114;2022-08-03T04:56:05;6.57;;;5.85;;
12760;SDS011;6444;49.742;6.114;2022-08-03T04:58:31;8.55;;;5.85;;
12760;SDS011;6444;49.742;6.114;2022-08-03T05:00:58;6.97;;;6.35;;
12760;SDS011;6444;49.742;6.114;2022-08-03T05:03:25;6.20;;;5.37;;
12760;SDS011;6444;49.742;6.114;2022-08-03T05:05:52;5.53;;;5.03;;
12760;SDS011;6444;49.742;6.114;2022-08-03T05:08:18;6.45;;;5.57;;
12760;SDS011;6444;49.742;6.114;2022-08-03T05:10:46;5.45;;;4.95;;
12760;SDS011;6444;49.742;6.114;2022-08-03T05:13:12;5.00;;;3.85;;
12760;SDS011;6444;49.742;6.114;2022-08-03T05:15:39;6.82;;;3.58;;
12760;SDS011;6444;49.742;6.114;2022-08-03T05:18:05;3.35;;;3.05;;
12760;SDS011;6444;49.742;6.114;2022-08-03T05:20:32;4.32;;;3.35;;
12760;SDS011;6444;49.742;6.114;2022-08-03T05:22:59;3.78;;;3.40;;
12760;SDS011;6444;49.742;6.114;2022-08-03T05:25:26;4.20;;;3.30;;
12760;SDS011;6444;49.742;6.114;2022-08-03T05:27:53;3.28;;;2.67;;
12760;SDS011;6444;49.742;6.114;2022-08-03T05:30:19;4.30;;;3.33;;
12760;SDS011;6444;49.742;6.114;2022-08-03T05:32:46;3.70;;;3.40;;
12760;SDS011;6444;49.742;6.114;2022-08-03T05:35:12;3.58;;;3.28;;
12760;SDS011;6444;49.742;6.114;2022-08-03T05:37:39;3.58;;;3.30;;
12760;SDS011;6444;49.742;6.114;2022-08-03T05:40:06;6.28;;;4.12;;
12760;SDS011;6444;49.742;6.114;2022-08-03T05:42:32;4.35;;;3.90;;
12760;SDS011;6444;49.742;6.114;2022-08-03T05:45:02;5.53;;;3.65;;
12760;SDS011;6444;49.742;6.114;2022-08-03T05:47:26;4.95;;;3.83;;
12760;SDS011;6444;49.742;6.114;2022-08-03T05:49:52;4.55;;;4.15;;
12760;SDS011;6444;49.742;6.114;2022-08-03T05:52:19;5.57;;;4.00;;
12760;SDS011;6444;49.742;6.114;2022-08-03T05:54:46;5.72;;;4.00;;
12760;SDS011;6444;49.742;6.114;2022-08-03T05:57:13;4.32;;;4.00;;
12760;SDS011;6444;49.742;6.114;2022-08-03T05:59:39;4.65;;;4.25;;
12760;SDS011;6444;49.742;6.114;2022-08-03T06:02:06;4.87;;;4.47;;
12760;SDS011;6444;49.742;6.114;2022-08-03T06:04:33;4.37;;;4.00;;
12760;SDS011;6444;49.742;6.114;2022-08-03T06:07:00;4.37;;;3.97;;
12760;SDS011;6444;49.742;6.114;2022-08-03T06:09:27;6.28;;;4.40;;
12760;SDS011;6444;49.742;6.114;2022-08-03T06:11:53;4.50;;;4.10;;
12760;SDS011;6444;49.742;6.114;2022-08-03T06:14:20;5.12;;;3.87;;
12760;SDS011;6444;49.742;6.114;2022-08-03T06:16:47;4.95;;;4.47;;
12760;SDS011;6444;49.742;6.114;2022-08-03T06:19:13;4.03;;;3.72;;
12760;SDS011;6444;49.742;6.114;2022-08-03T06:21:40;5.68;;;4.72;;
12760;SDS011;6444;49.742;6.114;2022-08-03T06:24:06;4.22;;;3.92;;
12760;SDS011;6444;49.742;6.114;2022-08-03T06:26:33;4.85;;;3.78;;
12760;SDS011;6444;49.742;6.114;2022-08-03T06:29:00;4.30;;;3.92;;
12760;SDS011;6444;49.742;6.114;2022-08-03T06:31:26;5.15;;;3.90;;
12760;SDS011;6444;49.742;6.114;2022-08-03T06:33:53;5.37;;;4.68;;
12760;SDS011;6444;49.742;6.114;2022-08-03T06:36:20;4.62;;;4.15;;
12760;SDS011;6444;49.742;6.114;2022-08-03T06:38:46;5.62;;;3.55;;
12760;SDS011;6444;49.742;6.114;2022-08-03T06:41:13;3.72;;;3.42;;
12760;SDS011;6444;49.742;6.114;2022-08-03T06:43:39;4.50;;;4.10;;
12760;SDS011;6444;49.742;6.114;2022-08-03T06:46:07;4.57;;;4.05;;
12760;SDS011;6444;49.742;6.114;2022-08-03T06:48:46;5.78;;;4.00;;
12760;SDS011;6444;49.742;6.114;2022-08-03T06:51:13;3.83;;;3.47;;
12760;SDS011;6444;49.742;6.114;2022-08-03T06:53:40;3.92;;;3.42;;
12760;SDS011;6444;49.742;6.114;2022-08-03T06:56:06;6.37;;;3.62;;
12760;SDS011;6444;49.742;6.114;2022-08-03T06:58:33;4.00;;;3.70;;
12760;SDS011;6444;49.742;6.114;2022-08-03T07:00:59;5.18;;;3.60;;
12760;SDS011;6444;49.742;6.114;2022-08-03T07:03:26;5.75;;;3.37;;
12760;SDS011;6444;49.742;6.114;2022-08-03T07:05:53;3.60;;;3.30;;
12760;SDS011;6444;49.742;6.114;2022-08-03T07:08:19;3.50;;;3.20;;
12760;SDS011;6444;49.742;6.114;2022-08-03T07:10:46;3.10;;;2.87;;
12760;SDS011;6444;49.742;6.114;2022-08-03T07:13:13;3.92;;;3.30;;
12760;SDS011;6444;49.742;6.114;2022-08-03T07:15:39;4.05;;;3.20;;
12760;SDS011;6444;49.742;6.114;2022-08-03T07:18:07;4.37;;;2.97;;
12760;SDS011;6444;49.742;6.114;2022-08-03T07:20:33;3.28;;;2.97;;
12760;SDS011;6444;49.742;6.114;2022-08-03T07:23:00;3.25;;;2.87;;
12760;SDS011;6444;49.742;6.114;2022-08-03T07:25:27;4.10;;;3.03;;
12760;SDS011;6444;49.742;6.114;2022-08-03T07:27:53;3.45;;;3.10;;
12760;SDS011;6444;49.742;6.114;2022-08-03T07:30:20;3.75;;;2.90;;
12760;SDS011;6444;49.742;6.114;2022-08-03T07:32:47;4.07;;;2.78;;
12760;SDS011;6444;49.742;6.114;2022-08-03T07:35:13;3.10;;;2.80;;
12760;SDS011;6444;49.742;6.114;2022-08-03T07:37:40;3.30;;;3.00;;
12760;SDS011;6444;49.742;6.114;2022-08-03T07:40:07;4.18;;;2.80;;
12760;SDS011;6444;49.742;6.114;2022-08-03T07:42:33;3.12;;;2.83;;
12760;SDS011;6444;49.742;6.114;2022-08-03T07:45:00;3.35;;;2.62;;
12760;SDS011;6444;49.742;6.114;2022-08-03T07:47:28;5.35;;;2.60;;
12760;SDS011;6444;49.742;6.114;2022-08-03T07:49:53;2.90;;;2.47;;
12760;SDS011;6444;49.742;6.114;2022-08-03T07:52:20;3.70;;;2.85;;
12760;SDS011;6444;49.742;6.114;2022-08-03T07:55:05;6.80;;;2.90;;
12760;SDS011;6444;49.742;6.114;2022-08-03T07:57:31;4.03;;;2.70;;
12760;SDS011;6444;49.742;6.114;2022-08-03T07:59:58;4.05;;;2.50;;
12760;SDS011;6444;49.742;6.114;2022-08-03T08:02:24;4.62;;;2.70;;
12760;SDS011;6444;49.742;6.114;2022-08-03T08:04:51;4.15;;;2.53;;
12760;SDS011;6444;49.742;6.114;2022-08-03T08:07:18;3.00;;;2.70;;
12760;SDS011;6444;49.742;6.114;2022-08-03T08:09:45;3.03;;;2.83;;
12760;SDS011;6444;49.742;6.114;2022-08-03T08:12:12;3.60;;;2.55;;
12760;SDS011;6444;49.742;6.114;2022-08-03T08:14:38;3.85;;;2.58;;
12760;SDS011;6444;49.742;6.114;2022-08-03T08:17:06;5.93;;;3.00;;
12760;SDS011;6444;49.742;6.114;2022-08-03T08:19:32;4.30;;;2.50;;
12760;SDS011;6444;49.742;6.114;2022-08-03T08:21:59;2.90;;;2.70;;
12760;SDS011;6444;49.742;6.114;2022-08-03T08:24:25;4.43;;;2.60;;
12760;SDS011;6444;49.742;6.114;2022-08-03T08:26:53;3.00;;;2.28;;
12760;SDS011;6444;49.742;6.114;2022-08-03T08:29:19;5.18;;;2.75;;
12760;SDS011;6444;49.742;6.114;2022-08-03T08:31:46;2.53;;;2.17;;
12760;SDS011;6444;49.742;6.114;2022-08-03T08:34:13;3.53;;;2.15;;
12760;SDS011;6444;49.742;6.114;2022-08-03T08:36:39;2.97;;;2.20;;
12760;SDS011;6444;49.742;6.114;2022-08-03T08:39:06;2.85;;;2.20;;
12760;SDS011;6444;49.742;6.114;2022-08-03T08:41:33;3.35;;;2.05;;
12760;SDS011;6444;49.742;6.114;2022-08-03T08:44:00;3.12;;;2.33;;
12760;SDS011;6444;49.742;6.114;2022-08-03T08:46:26;2.20;;;2.00;;
12760;SDS011;6444;49.742;6.114;2022-08-03T08:48:53;2.47;;;2.03;;
12760;SDS011;6444;49.742;6.114;2022-08-03T08:51:20;3.58;;;2.20;;
12760;SDS011;6444;49.742;6.114;2022-08-03T08:53:50;4.03;;;2.22;;
12760;SDS011;6444;49.742;6.114;2022-08-03T08:56:15;4.00;;;1.75;;
12760;SDS011;6444;49.742;6.114;2022-08-03T08:58:50;3.37;;;2.17;;
12760;SDS011;6444;49.742;6.114;2022-08-03T09:01:16;2.20;;;2.00;;
12760;SDS011;6444;49.742;6.114;2022-08-03T09:03:41;1.80;;;1.70;;
12760;SDS011;6444;49.742;6.114;2022-08-03T09:06:07;2.33;;;2.13;;
12760;SDS011;6444;49.742;6.114;2022-08-03T09:08:34;2.33;;;2.12;;
12760;SDS011;6444;49.742;6.114;2022-08-03T09:11:01;2.30;;;1.80;;
12760;SDS011;6444;49.742;6.114;2022-08-03T09:13:27;2.60;;;1.70;;
12760;SDS011;6444;49.742;6.114;2022-08-03T09:18:36;2.78;;;1.75;;
12760;SDS011;6444;49.742;6.114;2022-08-03T09:21:12;2.30;;;1.70;;
12760;SDS011;6444;49.742;6.114;2022-08-03T09:23:49;1.67;;;1.58;;
12760;SDS011;6444;49.742;6.114;2022-08-03T09:26:27;1.87;;;1.45;;
12760;SDS011;6444;49.742;6.114;2022-08-03T09:29:03;2.55;;;1.40;;
12760;SDS011;6444;49.742;6.114;2022-08-03T09:31:38;1.58;;;1.45;;
12760;SDS011;6444;49.742;6.114;2022-08-03T09:34:08;2.40;;;1.60;;
12760;SDS011;6444;49.742;6.114;2022-08-03T09:36:34;1.73;;;1.60;;
12760;SDS011;6444;49.742;6.114;2022-08-03T09:39:07;1.92;;;1.73;;
12760;SDS011;6444;49.742;6.114;2022-08-03T09:41:32;2.78;;;2.00;;
12760;SDS011;6444;49.742;6.114;2022-08-03T09:43:59;1.45;;;1.35;;
12760;SDS011;6444;49.742;6.114;2022-08-03T09:46:26;1.70;;;1.60;;
12760;SDS011;6444;49.742;6.114;2022-08-03T09:48:52;2.92;;;1.70;;
12760;SDS011;6444;49.742;6.114;2022-08-03T09:51:20;3.85;;;1.80;;
12760;SDS011;6444;49.742;6.114;2022-08-03T09:53:46;1.87;;;1.67;;
12760;SDS011;6444;49.742;6.114;2022-08-03T09:56:12;4.10;;;1.75;;
12760;SDS011;6444;49.742;6.114;2022-08-03T09:58:45;2.13;;;1.70;;
12760;SDS011;6444;49.742;6.114;2022-08-03T10:01:11;1.87;;;1.48;;
12760;SDS011;6444;49.742;6.114;2022-08-03T10:03:38;2.15;;;1.50;;
12760;SDS011;6444;49.742;6.114;2022-08-03T10:06:18;2.17;;;1.60;;
12760;SDS011;6444;49.742;6.114;2022-08-03T10:08:46;2.83;;;1.50;;
12760;SDS011;6444;49.742;6.114;2022-08-03T10:11:13;2.10;;;1.52;;
12760;SDS011;6444;49.742;6.114;2022-08-03T10:13:39;1.70;;;1.60;;
12760;SDS011;6444;49.742;6.114;2022-08-03T10:16:06;1.30;;;1.20;;
12760;SDS011;6444;49.742;6.114;2022-08-03T10:18:33;2.92;;;1.70;;
12760;SDS011;6444;49.742;6.114;2022-08-03T10:21:02;1.90;;;1.67;;
12760;SDS011;6444;49.742;6.114;2022-08-03T10:23:32;5.37;;;1.60;;
12760;SDS011;6444;49.742;6.114;2022-08-03T10:26:02;1.95;;;1.77;;
12760;SDS011;6444;49.742;6.114;2022-08-03T10:28:33;1.90;;;1.52;;
12760;SDS011;6444;49.742;6.114;2022-08-03T10:31:01;3.42;;;1.40;;
12760;SDS011;6444;49.742;6.114;2022-08-03T10:33:27;1.80;;;1.70;;
12760;SDS011;6444;49.742;6.114;2022-08-03T10:35:55;3.05;;;1.73;;
12760;SDS011;6444;49.742;6.114;2022-08-03T10:38:22;1.70;;;1.50;;
12760;SDS011;6444;49.742;6.114;2022-08-03T10:40:49;1.60;;;1.50;;
12760;SDS011;6444;49.742;6.114;2022-08-03T10:43:18;2.03;;;1.40;;
12760;SDS011;6444;49.742;6.114;2022-08-03T10:45:44;1.80;;;1.33;;
12760;SDS011;6444;49.742;6.114;2022-08-03T10:48:11;3.50;;;1.67;;
12760;SDS011;6444;49.742;6.114;2022-08-03T10:50:38;2.20;;;1.40;;
12760;SDS011;6444;49.742;6.114;2022-08-03T10:53:04;2.30;;;1.33;;
12760;SDS011;6444;49.742;6.114;2022-08-03T10:55:41;1.83;;;1.67;;
12760;SDS011;6444;49.742;6.114;2022-08-03T11:01:04;2.30;;;1.30;;
12760;SDS011;6444;49.742;6.114;2022-08-03T11:03:31;1.83;;;1.35;;
12760;SDS011;6444;49.742;6.114;2022-08-03T11:08:40;1.65;;;1.40;;
12760;SDS011;6444;49.742;6.114;2022-08-03T11:13:58;3.78;;;1.52;;
12760;SDS011;6444;49.742;6.114;2022-08-03T11:16:34;1.55;;;1.45;;
12760;SDS011;6444;49.742;6.114;2022-08-03T11:19:03;3.95;;;1.40;;
12760;SDS011;6444;49.742;6.114;2022-08-03T11:27:14;1.60;;;1.35;;
12760;SDS011;6444;49.742;6.114;2022-08-03T11:29:53;2.15;;;1.40;;
12760;SDS011;6444;49.742;6.114;2022-08-03T11:35:22;1.60;;;1.50;;
12760;SDS011;6444;49.742;6.114;2022-08-03T11:40:37;2.17;;;1.40;;
12760;SDS011;6444;49.742;6.114;2022-08-03T11:43:09;1.60;;;1.50;;
12760;SDS011;6444;49.742;6.114;2022-08-03T11:45:35;5.85;;;1.60;;
12760;SDS011;6444;49.742;6.114;2022-08-03T11:48:11;1.42;;;1.33;;
12760;SDS011;6444;49.742;6.114;2022-08-03T11:50:34;1.90;;;1.70;;
12760;SDS011;6444;49.742;6.114;2022-08-03T11:52:56;3.72;;;1.55;;
12760;SDS011;6444;49.742;6.114;2022-08-03T11:55:22;2.70;;;1.55;;
12760;SDS011;6444;49.742;6.114;2022-08-03T11:57:49;1.70;;;1.60;;
12760;SDS011;6444;49.742;6.114;2022-08-03T12:00:20;1.60;;;1.50;;
12760;SDS011;6444;49.742;6.114;2022-08-03T12:02:55;3.08;;;1.48;;
12760;SDS011;6444;49.742;6.114;2022-08-03T12:05:33;1.80;;;1.55;;
12760;SDS011;6444;49.742;6.114;2022-08-03T12:08:02;2.45;;;1.42;;
12760;SDS011;6444;49.742;6.114;2022-08-03T12:10:28;2.00;;;1.55;;
12760;SDS011;6444;49.742;6.114;2022-08-03T12:12:56;1.83;;;1.50;;
12760;SDS011;6444;49.742;6.114;2022-08-03T12:15:26;2.87;;;1.45;;
12760;SDS011;6444;49.742;6.114;2022-08-03T12:17:52;1.70;;;1.20;;
12760;SDS011;6444;49.742;6.114;2022-08-03T12:20:25;1.73;;;1.50;;
12760;SDS011;6444;49.742;6.114;2022-08-03T12:22:48;1.33;;;1.27;;
12760;SDS011;6444;49.742;6.114;2022-08-03T12:25:22;1.67;;;1.57;;
12760;SDS011;6444;49.742;6.114;2022-08-03T12:27:47;2.65;;;1.40;;
12760;SDS011;6444;49.742;6.114;2022-08-03T12:30:14;2.22;;;1.70;;
12760;SDS011;6444;49.742;6.114;2022-08-03T12:32:41;1.52;;;1.40;;
12760;SDS011;6444;49.742;6.114;2022-08-03T12:35:07;2.10;;;1.33;;
12760;SDS011;6444;49.742;6.114;2022-08-03T12:37:34;2.17;;;1.45;;
12760;SDS011;6444;49.742;6.114;2022-08-03T12:40:00;2.62;;;1.50;;
12760;SDS011;6444;49.742;6.114;2022-08-03T12:42:31;1.48;;;1.37;;
12760;SDS011;6444;49.742;6.114;2022-08-03T12:44:58;1.73;;;1.30;;
12760;SDS011;6444;49.742;6.114;2022-08-03T12:47:24;1.58;;;1.30;;
12760;SDS011;6444;49.742;6.114;2022-08-03T12:49:51;2.90;;;1.87;;
12760;SDS011;6444;49.742;6.114;2022-08-03T12:52:19;2.47;;;1.70;;
12760;SDS011;6444;49.742;6.114;2022-08-03T12:54:55;2.85;;;1.48;;
12760;SDS011;6444;49.742;6.114;2022-08-03T12:57:24;1.70;;;1.50;;
12760;SDS011;6444;49.742;6.114;2022-08-03T12:59:50;2.83;;;1.67;;
12760;SDS011;6444;49.742;6.114;2022-08-03T13:02:17;2.20;;;1.60;;
12760;SDS011;6444;49.742;6.114;2022-08-03T13:04:44;2.20;;;1.60;;
12760;SDS011;6444;49.742;6.114;2022-08-03T13:07:10;2.72;;;1.75;;
12760;SDS011;6444;49.742;6.114;2022-08-03T13:09:47;1.50;;;1.40;;
12760;SDS011;6444;49.742;6.114;2022-08-03T13:12:13;1.95;;;1.52;;
12760;SDS011;6444;49.742;6.114;2022-08-03T13:14:40;3.45;;;1.52;;
12760;SDS011;6444;49.742;6.114;2022-08-03T13:17:06;3.72;;;1.70;;
12760;SDS011;6444;49.742;6.114;2022-08-03T13:19:36;1.92;;;1.80;;
12760;SDS011;6444;49.742;6.114;2022-08-03T13:21:59;1.70;;;1.60;;
12760;SDS011;6444;49.742;6.114;2022-08-03T13:24:26;2.92;;;1.95;;
12760;SDS011;6444;49.742;6.114;2022-08-03T13:26:52;1.62;;;1.52;;
12760;SDS011;6444;49.742;6.114;2022-08-03T13:29:19;2.40;;;1.33;;
12760;SDS011;6444;49.742;6.114;2022-08-03T13:31:46;3.00;;;1.60;;
12760;SDS011;6444;49.742;6.114;2022-08-03T13:34:13;1.70;;;1.60;;
12760;SDS011;6444;49.742;6.114;2022-08-03T13:36:39;2.65;;;1.60;;
12760;SDS011;6444;49.742;6.114;2022-08-03T13:39:06;1.70;;;1.50;;
12760;SDS011;6444;49.742;6.114;2022-08-03T13:41:33;3.87;;;1.75;;
12760;SDS011;6444;49.742;6.114;2022-08-03T13:44:00;2.00;;;1.70;;
12760;SDS011;6444;49.742;6.114;2022-08-03T13:46:27;3.20;;;1.90;;
12760;SDS011;6444;49.742;6.114;2022-08-03T13:48:53;2.17;;;1.50;;
12760;SDS011;6444;49.742;6.114;2022-08-03T13:51:20;2.22;;;1.67;;
12760;SDS011;6444;49.742;6.114;2022-08-03T13:53:47;1.58;;;1.48;;
12760;SDS011;6444;49.742;6.114;2022-08-03T13:56:13;2.97;;;1.75;;
12760;SDS011;6444;49.742;6.114;2022-08-03T13:58:41;1.70;;;1.60;;
12760;SDS011;6444;49.742;6.114;2022-08-03T14:01:08;1.90;;;1.80;;
12760;SDS011;6444;49.742;6.114;2022-08-03T14:03:34;1.87;;;1.77;;
12760;SDS011;6444;49.742;6.114;2022-08-03T14:06:01;2.80;;;2.10;;
12760;SDS011;6444;49.742;6.114;2022-08-03T14:08:27;3.15;;;1.90;;
12760;SDS011;6444;49.742;6.114;2022-08-03T14:10:54;2.65;;;1.70;;
12760;SDS011;6444;49.742;6.114;2022-08-03T14:13:21;3.97;;;1.70;;
12760;SDS011;6444;49.742;6.114;2022-08-03T14:15:47;2.03;;;1.75;;
12760;SDS011;6444;49.742;6.114;2022-08-03T14:18:14;3.37;;;1.58;;
12760;SDS011;6444;49.742;6.114;2022-08-03T14:20:41;2.62;;;1.80;;
12760;SDS011;6444;49.742;6.114;2022-08-03T14:23:07;2.15;;;1.80;;
12760;SDS011;6444;49.742;6.114;2022-08-03T14:25:34;3.70;;;1.90;;
12760;SDS011;6444;49.742;6.114;2022-08-03T14:28:00;4.70;;;1.75;;
12760;SDS011;6444;49.742;6.114;2022-08-03T14:30:27;3.28;;;1.65;;
12760;SDS011;6444;49.742;6.114;2022-08-03T14:32:54;2.00;;;1.50;;
12760;SDS011;6444;49.742;6.114;2022-08-03T14:35:20;2.20;;;1.73;;
12760;SDS011;6444;49.742;6.114;2022-08-03T14:37:47;1.80;;;1.70;;
12760;SDS011;6444;49.742;6.114;2022-08-03T14:40:14;3.45;;;1.67;;
12760;SDS011;6444;49.742;6.114;2022-08-03T14:42:41;2.67;;;1.80;;
12760;SDS011;6444;49.742;6.114;2022-08-03T14:45:07;1.85;;;1.75;;
12760;SDS011;6444;49.742;6.114;2022-08-03T14:47:34;3.15;;;2.00;;
12760;SDS011;6444;49.742;6.114;2022-08-03T14:50:01;2.17;;;1.60;;
12760;SDS011;6444;49.742;6.114;2022-08-03T14:52:27;3.25;;;1.60;;
12760;SDS011;6444;49.742;6.114;2022-08-03T14:54:54;2.10;;;1.87;;
12760;SDS011;6444;49.742;6.114;2022-08-03T14:57:21;2.17;;;1.80;;
12760;SDS011;6444;49.742;6.114;2022-08-03T14:59:47;2.60;;;1.70;;
12760;SDS011;6444;49.742;6.114;2022-08-03T15:02:14;2.62;;;1.80;;
12760;SDS011;6444;49.742;6.114;2022-08-03T15:04:41;2.05;;;1.80;;
12760;SDS011;6444;49.742;6.114;2022-08-03T15:07:07;2.00;;;1.70;;
12760;SDS011;6444;49.742;6.114;2022-08-03T15:09:35;4.45;;;1.73;;
12760;SDS011;6444;49.742;6.114;2022-08-03T15:12:01;1.60;;;1.50;;
12760;SDS011;6444;49.742;6.114;2022-08-03T15:14:28;2.33;;;1.50;;
12760;SDS011;6444;49.742;6.114;2022-08-03T15:16:54;2.97;;;1.80;;
12760;SDS011;6444;49.742;6.114;2022-08-03T15:19:21;1.70;;;1.60;;
12760;SDS011;6444;49.742;6.114;2022-08-03T15:21:48;1.77;;;1.67;;
12760;SDS011;6444;49.742;6.114;2022-08-03T15:24:14;4.93;;;1.98;;
12760;SDS011;6444;49.742;6.114;2022-08-03T15:26:41;1.70;;;1.60;;
12760;SDS011;6444;49.742;6.114;2022-08-03T15:29:08;3.28;;;1.60;;
12760;SDS011;6444;49.742;6.114;2022-08-03T15:31:34;4.65;;;1.52;;
12760;SDS011;6444;49.742;6.114;2022-08-03T15:34:01;2.80;;;2.00;;
12760;SDS011;6444;49.742;6.114;2022-08-03T15:36:27;4.22;;;1.67;;
12760;SDS011;6444;49.742;6.114;2022-08-03T15:38:54;2.62;;;1.65;;